Time;durP1;ratioP1;P1;durP2;ratioP2;P2;SDS_P1;SDS_P2;PMS_P1;PMS_P2;Temp;Humidity;BMP_temperature;BMP_pressure;BME280_temperature;BME280_humidity;BME280_pressure;Samples;Min_cycle;Max_cycle;Signal;HPM_P1;HPM_P2
2023/12/08 00:01:57;;;;;;;79.50;41.40;;;;;;;;;;5017364;28;20441;-40
2023/12/08 00:04:24;;;;;;;77.43;40.93;;;;;;;;;;5017276;28;20962;-39
2023/12/08 00:06:53;;;;;;;72.97;42.93;;;;;;;;;;5016529;28;20484;-39
2023/12/08 00:09:21;;;;;;;79.97;40.57;;;;;;;;;;5016696;28;20433;-38
2023/12/08 00:11:49;;;;;;;63.10;42.50;;;;;;;;;;5016029;28;20507;-40
2023/12/08 00:14:18;;;;;;;75.17;41.80;;;;;;;;;;5016286;28;20433;-38
2023/12/08 00:16:45;;;;;;;71.60;42.20;;;;;;;;;;5016630;28;20441;-38
2023/12/08 00:19:13;;;;;;;58.10;39.90;;;;;;;;;;5016053;28;20429;-38
2023/12/08 00:21:41;;;;;;;78.33;41.00;;;;;;;;;;5009628;28;20474;-38
2023/12/08 00:24:09;;;;;;;67.73;40.90;;;;;;;;;;5013715;28;20513;-38
2023/12/08 00:26:36;;;;;;;75.23;41.90;;;;;;;;;;5015532;28;20465;-39
2023/12/08 00:29:04;;;;;;;66.60;42.43;;;;;;;;;;5015491;28;20523;-39
2023/12/08 00:31:33;;;;;;;73.33;41.00;;;;;;;;;;5014659;28;20483;-38
2023/12/08 00:34:01;;;;;;;58.87;42.90;;;;;;;;;;5015603;28;20520;-39
2023/12/08 00:36:29;;;;;;;65.00;40.20;;;;;;;;;;5007522;28;21007;-38
2023/12/08 00:38:56;;;;;;;63.00;42.30;;;;;;;;;;5015518;28;20983;-39
2023/12/08 00:41:25;;;;;;;67.67;40.57;;;;;;;;;;5014752;28;20496;-39
2023/12/08 00:43:53;;;;;;;53.17;38.63;;;;;;;;;;5015393;28;20440;-38
2023/12/08 00:46:21;;;;;;;67.63;39.70;;;;;;;;;;5015529;28;20561;-38
2023/12/08 00:48:50;;;;;;;58.20;38.90;;;;;;;;;;5015706;28;20858;-39
2023/12/08 00:51:17;;;;;;;44.83;36.43;;;;;;;;;;5014645;28;20492;-38
2023/12/08 00:53:45;;;;;;;57.43;37.40;;;;;;;;;;5015648;28;20524;-40
2023/12/08 00:56:13;;;;;;;58.53;38.43;;;;;;;;;;5015275;28;20468;-38
2023/12/08 00:58:40;;;;;;;49.40;37.60;;;;;;;;;;5015578;28;20437;-38
2023/12/08 01:01:09;;;;;;;49.80;37.00;;;;;;;;;;5013614;28;20855;-38
2023/12/08 01:03:37;;;;;;;50.47;39.80;;;;;;;;;;5014915;28;20461;-40
2023/12/08 01:06:06;;;;;;;55.33;38.70;;;;;;;;;;5014746;28;20433;-39
2023/12/08 01:08:34;;;;;;;60.43;40.00;;;;;;;;;;5007529;28;20441;-38
2023/12/08 01:11:01;;;;;;;49.80;37.40;;;;;;;;;;5014056;28;20469;-39
2023/12/08 01:13:29;;;;;;;45.73;37.57;;;;;;;;;;5017157;28;20844;-40
2023/12/08 01:15:57;;;;;;;58.07;38.43;;;;;;;;;;5018530;28;20441;-39
2023/12/08 01:18:24;;;;;;;53.00;38.87;;;;;;;;;;5018218;28;20505;-37
2023/12/08 01:20:54;;;;;;;42.63;37.07;;;;;;;;;;5017702;28;20519;-38
2023/12/08 01:23:23;;;;;;;49.40;38.23;;;;;;;;;;5018101;28;20439;-38
2023/12/08 01:25:51;;;;;;;50.33;35.67;;;;;;;;;;5017700;28;20437;-37
2023/12/08 01:28:19;;;;;;;55.90;38.00;;;;;;;;;;5022638;28;21171;-39
2023/12/08 01:30:46;;;;;;;45.43;38.27;;;;;;;;;;5020535;28;20507;-41
2023/12/08 01:33:14;;;;;;;47.30;35.97;;;;;;;;;;5021550;28;20441;-39
2023/12/08 01:35:42;;;;;;;48.73;36.10;;;;;;;;;;5022193;28;20441;-38
2023/12/08 01:38:10;;;;;;;50.43;35.83;;;;;;;;;;5021298;28;20441;-41
2023/12/08 01:40:41;;;;;;;48.17;39.77;;;;;;;;;;5020465;28;20491;-43
2023/12/08 01:43:12;;;;;;;56.53;36.80;;;;;;;;;;5020778;28;20528;-41
2023/12/08 01:45:40;;;;;;;43.20;35.90;;;;;;;;;;5021266;28;20468;-42
2023/12/08 01:48:08;;;;;;;40.13;35.40;;;;;;;;;;5020972;28;20476;-39
2023/12/08 01:50:37;;;;;;;47.20;36.30;;;;;;;;;;5019518;28;20457;-39
2023/12/08 01:53:06;;;;;;;47.80;35.13;;;;;;;;;;5020531;28;20472;-41
2023/12/08 01:55:34;;;;;;;46.30;36.93;;;;;;;;;;5020524;28;20425;-42
2023/12/08 01:58:03;;;;;;;42.93;36.80;;;;;;;;;;5020613;28;20459;-40
2023/12/08 02:00:30;;;;;;;40.93;35.80;;;;;;;;;;5019129;28;20465;-40
2023/12/08 02:02:59;;;;;;;42.40;35.77;;;;;;;;;;5019258;28;20464;-38
2023/12/08 02:05:27;;;;;;;42.27;37.13;;;;;;;;;;5019466;28;20488;-38
2023/12/08 02:07:55;;;;;;;45.80;37.23;;;;;;;;;;5019677;28;20473;-38
2023/12/08 02:10:23;;;;;;;45.83;35.40;;;;;;;;;;5018614;28;20484;-40
2023/12/08 02:12:50;;;;;;;44.27;36.50;;;;;;;;;;5019623;28;20440;-39
2023/12/08 02:15:19;;;;;;;42.67;38.20;;;;;;;;;;5019075;28;20785;-38
2023/12/08 02:17:48;;;;;;;49.13;38.20;;;;;;;;;;5018487;28;20835;-38
2023/12/08 02:20:16;;;;;;;44.27;36.70;;;;;;;;;;5018245;28;20541;-39
2023/12/08 02:22:44;;;;;;;41.03;36.47;;;;;;;;;;5018583;28;20461;-39
2023/12/08 02:25:12;;;;;;;53.03;37.77;;;;;;;;;;5016806;28;20441;-38
2023/12/08 02:27:40;;;;;;;50.30;38.77;;;;;;;;;;5018590;28;20473;-37
2023/12/08 02:30:09;;;;;;;46.63;38.40;;;;;;;;;;5016721;28;20476;-37
2023/12/08 02:32:39;;;;;;;49.63;39.17;;;;;;;;;;5010524;28;20437;-39
2023/12/08 02:35:08;;;;;;;58.47;39.23;;;;;;;;;;5017870;28;20464;-37
2023/12/08 02:37:36;;;;;;;47.90;37.80;;;;;;;;;;5010229;28;20984;-38
2023/12/08 02:40:06;;;;;;;58.33;39.70;;;;;;;;;;5017364;28;20469;-38
2023/12/08 02:42:35;;;;;;;44.00;37.40;;;;;;;;;;5017856;28;20913;-38
2023/12/08 02:45:03;;;;;;;49.93;40.40;;;;;;;;;;5018233;28;20437;-41
2023/12/08 02:47:31;;;;;;;48.07;37.73;;;;;;;;;;5016946;28;20574;-39
2023/12/08 02:49:59;;;;;;;51.53;39.70;;;;;;;;;;5016824;28;20491;-40
2023/12/08 02:52:27;;;;;;;57.93;40.63;;;;;;;;;;5016932;28;20465;-38
2023/12/08 02:54:54;;;;;;;49.27;37.97;;;;;;;;;;5016876;28;20425;-38
2023/12/08 02:57:22;;;;;;;52.37;39.23;;;;;;;;;;5016723;28;20447;-38
2023/12/08 02:59:51;;;;;;;52.10;38.10;;;;;;;;;;5016725;28;20503;-38
2023/12/08 03:02:18;;;;;;;47.70;40.20;;;;;;;;;;5017191;28;20436;-38
2023/12/08 03:04:46;;;;;;;46.37;35.93;;;;;;;;;;5016854;28;20438;-38
2023/12/08 03:07:13;;;;;;;45.10;38.70;;;;;;;;;;5017363;28;20449;-38
2023/12/08 03:09:41;;;;;;;47.83;38.27;;;;;;;;;;5016195;28;20525;-42
2023/12/08 03:12:09;;;;;;;43.80;39.10;;;;;;;;;;5016418;28;20531;-38
2023/12/08 03:14:36;;;;;;;49.20;38.00;;;;;;;;;;5016292;28;20521;-39
2023/12/08 03:17:05;;;;;;;51.07;40.80;;;;;;;;;;5016492;28;20500;-39
2023/12/08 03:19:33;;;;;;;43.47;37.50;;;;;;;;;;5015954;28;20944;-38
2023/12/08 03:22:01;;;;;;;47.80;39.57;;;;;;;;;;5016099;28;20506;-38
2023/12/08 03:24:28;;;;;;;45.73;38.23;;;;;;;;;;5016320;28;20492;-41
2023/12/08 03:26:56;;;;;;;46.10;38.03;;;;;;;;;;5016221;28;20848;-38
2023/12/08 03:29:23;;;;;;;48.37;38.37;;;;;;;;;;5016230;28;20912;-39
2023/12/08 03:31:51;;;;;;;40.90;36.70;;;;;;;;;;5015216;28;20469;-39
2023/12/08 03:34:20;;;;;;;44.97;38.20;;;;;;;;;;5015953;28;20469;-39
2023/12/08 03:36:47;;;;;;;55.43;39.93;;;;;;;;;;5016251;28;20752;-38
2023/12/08 03:39:15;;;;;;;51.00;38.80;;;;;;;;;;5015150;28;20461;-38
2023/12/08 03:41:43;;;;;;;50.43;39.67;;;;;;;;;;5014136;28;20469;-41
2023/12/08 03:44:10;;;;;;;44.67;39.30;;;;;;;;;;5015204;28;20503;-38
2023/12/08 03:46:38;;;;;;;47.03;39.27;;;;;;;;;;5015517;28;20437;-38
2023/12/08 03:49:05;;;;;;;46.97;38.60;;;;;;;;;;5015480;28;20527;-38
2023/12/08 03:51:34;;;;;;;41.63;37.27;;;;;;;;;;5014228;28;20468;-37
2023/12/08 03:54:02;;;;;;;43.93;38.40;;;;;;;;;;5014784;28;20490;-40
2023/12/08 03:56:30;;;;;;;38.93;34.90;;;;;;;;;;5015565;28;20433;-38
2023/12/08 03:58:57;;;;;;;42.20;36.40;;;;;;;;;;5015574;28;20917;-38
2023/12/08 04:01:25;;;;;;;41.47;37.07;;;;;;;;;;5014381;28;20493;-38
2023/12/08 04:03:52;;;;;;;42.67;37.47;;;;;;;;;;5015304;28;20441;-39
2023/12/08 04:06:20;;;;;;;44.00;39.20;;;;;;;;;;5014605;28;20472;-38
2023/12/08 04:08:49;;;;;;;41.00;36.03;;;;;;;;;;5014836;28;20485;-38
2023/12/08 04:11:16;;;;;;;40.43;36.20;;;;;;;;;;5014345;28;20469;-39
2023/12/08 04:13:44;;;;;;;39.37;35.20;;;;;;;;;;5015359;28;20500;-38
2023/12/08 04:16:12;;;;;;;42.30;37.83;;;;;;;;;;5015529;28;20433;-41
2023/12/08 04:18:39;;;;;;;43.43;38.77;;;;;;;;;;5015249;28;20516;-38
2023/12/08 04:21:07;;;;;;;45.57;37.93;;;;;;;;;;5013847;28;20531;-38
2023/12/08 04:23:35;;;;;;;40.40;36.30;;;;;;;;;;5015401;28;21009;-38
2023/12/08 04:26:06;;;;;;;41.77;37.23;;;;;;;;;;5015424;28;20437;-39
2023/12/08 04:28:34;;;;;;;44.83;36.80;;;;;;;;;;5014598;28;20556;-38
2023/12/08 04:31:01;;;;;;;46.67;37.53;;;;;;;;;;5015419;28;20508;-38
2023/12/08 04:33:29;;;;;;;40.87;35.90;;;;;;;;;;5015177;28;20441;-39
2023/12/08 04:35:57;;;;;;;42.77;38.20;;;;;;;;;;5015379;28;20433;-42
2023/12/08 04:38:25;;;;;;;46.67;37.47;;;;;;;;;;5015415;28;20499;-40
2023/12/08 04:40:52;;;;;;;44.97;36.90;;;;;;;;;;5055546;22;21389;-46
2023/12/08 04:43:21;;;;;;;38.60;35.00;;;;;;;;;;5031700;28;20479;-42
2023/12/08 04:45:49;;;;;;;39.07;35.13;;;;;;;;;;5031747;28;20459;-46
2023/12/08 04:48:16;;;;;;;41.27;36.47;;;;;;;;;;5034731;28;20450;-45
2023/12/08 04:50:45;;;;;;;39.27;35.50;;;;;;;;;;5025761;28;20472;-43
2023/12/08 04:53:13;;;;;;;38.40;34.60;;;;;;;;;;5035891;28;20507;-42
2023/12/08 04:55:40;;;;;;;40.67;36.63;;;;;;;;;;5035332;28;20442;-42
2023/12/08 04:58:08;;;;;;;41.83;37.40;;;;;;;;;;5035733;28;20436;-45
2023/12/08 05:00:37;;;;;;;41.00;36.90;;;;;;;;;;5026400;28;20469;-40
2023/12/08 05:03:04;;;;;;;44.13;37.83;;;;;;;;;;5035330;28;20826;-45
2023/12/08 05:05:34;;;;;;;42.40;37.97;;;;;;;;;;5035016;28;20523;-40
2023/12/08 05:08:01;;;;;;;40.50;36.40;;;;;;;;;;5034889;28;20451;-41
2023/12/08 05:10:29;;;;;;;39.20;35.30;;;;;;;;;;5034354;28;20514;-43
2023/12/08 05:12:56;;;;;;;42.00;37.53;;;;;;;;;;5035214;28;20471;-43
2023/12/08 05:15:24;;;;;;;41.57;37.27;;;;;;;;;;5034580;28;20538;-42
2023/12/08 05:17:53;;;;;;;39.17;35.37;;;;;;;;;;5030667;28;20544;-42
2023/12/08 05:20:21;;;;;;;39.53;35.83;;;;;;;;;;5026697;28;20488;-46
2023/12/08 05:22:48;;;;;;;40.13;36.03;;;;;;;;;;5034306;28;20845;-44
2023/12/08 05:25:16;;;;;;;38.23;35.07;;;;;;;;;;5034401;28;20535;-40
2023/12/08 05:27:44;;;;;;;40.20;36.30;;;;;;;;;;5034959;28;20478;-42
2023/12/08 05:30:12;;;;;;;40.87;37.10;;;;;;;;;;5034653;28;20492;-41
2023/12/08 05:32:39;;;;;;;41.13;36.97;;;;;;;;;;5026369;28;20457;-43
2023/12/08 05:35:09;;;;;;;40.23;36.23;;;;;;;;;;5026439;28;20890;-44
2023/12/08 05:37:36;;;;;;;39.47;35.57;;;;;;;;;;5034789;28;20476;-44
2023/12/08 05:40:05;;;;;;;41.00;36.53;;;;;;;;;;5034288;28;20487;-45
2023/12/08 05:42:32;;;;;;;42.00;37.80;;;;;;;;;;5034336;28;20522;-41
2023/12/08 05:45:00;;;;;;;41.87;37.20;;;;;;;;;;5034720;28;20439;-45
2023/12/08 05:47:28;;;;;;;39.67;35.53;;;;;;;;;;5036226;28;20444;-41
2023/12/08 05:49:56;;;;;;;42.63;36.33;;;;;;;;;;5034576;28;20464;-42
2023/12/08 05:52:25;;;;;;;40.60;36.43;;;;;;;;;;5034103;28;20521;-46
2023/12/08 05:54:53;;;;;;;39.30;35.07;;;;;;;;;;5034395;28;20455;-43
2023/12/08 05:57:20;;;;;;;40.13;35.50;;;;;;;;;;5034769;28;20472;-45
2023/12/08 05:59:48;;;;;;;47.03;38.87;;;;;;;;;;5033659;28;20476;-39
2023/12/08 06:02:16;;;;;;;43.30;38.90;;;;;;;;;;5018733;28;20544;-42
2023/12/08 06:04:43;;;;;;;42.40;38.23;;;;;;;;;;5022390;28;20465;-43
2023/12/08 06:07:11;;;;;;;46.03;38.30;;;;;;;;;;5014242;28;20460;-42
2023/12/08 06:09:41;;;;;;;40.93;36.60;;;;;;;;;;5014133;28;20480;-42
2023/12/08 06:12:09;;;;;;;39.73;35.57;;;;;;;;;;5014441;28;20452;-43
2023/12/08 06:14:36;;;;;;;42.83;38.43;;;;;;;;;;5014144;28;20437;-45
2023/12/08 06:17:04;;;;;;;40.13;35.87;;;;;;;;;;5019779;28;20951;-48
2023/12/08 06:19:34;;;;;;;41.37;37.23;;;;;;;;;;5024115;28;20432;-42
2023/12/08 06:22:01;;;;;;;41.40;37.07;;;;;;;;;;5041267;28;20456;-45
2023/12/08 06:24:29;;;;;;;41.37;37.33;;;;;;;;;;5025683;28;20854;-41
2023/12/08 06:26:58;;;;;;;42.23;37.33;;;;;;;;;;5014608;28;20523;-44
2023/12/08 06:29:26;;;;;;;40.93;36.80;;;;;;;;;;5014137;28;20932;-41
2023/12/08 06:31:55;;;;;;;44.13;39.37;;;;;;;;;;4986378;28;20952;-42
2023/12/08 06:34:23;;;;;;;42.30;37.90;;;;;;;;;;5016157;28;20504;-43
2023/12/08 06:36:50;;;;;;;43.00;38.50;;;;;;;;;;5015851;28;20445;-45
2023/12/08 06:39:18;;;;;;;42.60;38.20;;;;;;;;;;5014887;28;20433;-45
2023/12/08 06:41:46;;;;;;;41.23;36.90;;;;;;;;;;5013626;28;20464;-41
2023/12/08 06:44:15;;;;;;;41.87;37.47;;;;;;;;;;5014012;28;20483;-40
2023/12/08 06:46:43;;;;;;;42.57;38.40;;;;;;;;;;5014127;28;20491;-45
2023/12/08 06:49:10;;;;;;;40.20;36.27;;;;;;;;;;5014001;28;20444;-42
2023/12/08 06:51:38;;;;;;;39.30;35.00;;;;;;;;;;5013245;28;20461;-42
2023/12/08 06:54:06;;;;;;;41.77;37.20;;;;;;;;;;5013785;28;20942;-42
2023/12/08 06:56:33;;;;;;;42.63;38.10;;;;;;;;;;5013754;28;20434;-42
2023/12/08 06:59:01;;;;;;;39.63;35.40;;;;;;;;;;5014098;28;20454;-42
2023/12/08 07:01:31;;;;;;;39.67;35.93;;;;;;;;;;5013177;28;20465;-44
2023/12/08 07:03:59;;;;;;;40.97;36.93;;;;;;;;;;5013810;28;20461;-44
2023/12/08 07:06:26;;;;;;;40.17;35.93;;;;;;;;;;5013754;28;20472;-44
2023/12/08 07:08:54;;;;;;;40.87;36.97;;;;;;;;;;5013871;28;20869;-41
2023/12/08 07:11:22;;;;;;;42.63;37.87;;;;;;;;;;5012582;28;20465;-45
2023/12/08 07:13:50;;;;;;;40.27;36.30;;;;;;;;;;5013360;28;20484;-39
2023/12/08 07:16:17;;;;;;;39.53;35.93;;;;;;;;;;5013667;28;20532;-44
2023/12/08 07:18:46;;;;;;;39.77;35.97;;;;;;;;;;5021451;28;20436;-43
2023/12/08 07:21:14;;;;;;;43.70;39.03;;;;;;;;;;5024689;28;20851;-44
2023/12/08 07:23:42;;;;;;;42.37;37.97;;;;;;;;;;5014629;28;20484;-43
2023/12/08 07:26:10;;;;;;;39.37;35.47;;;;;;;;;;5013224;28;20447;-40
2023/12/08 07:28:37;;;;;;;44.63;39.73;;;;;;;;;;5013169;28;20456;-43
2023/12/08 07:31:05;;;;;;;43.00;38.63;;;;;;;;;;5012802;28;20492;-43
2023/12/08 07:33:33;;;;;;;41.00;37.00;;;;;;;;;;5013004;28;20484;-44
2023/12/08 07:36:03;;;;;;;45.20;40.50;;;;;;;;;;5013966;28;20495;-40
2023/12/08 07:38:30;;;;;;;42.47;38.37;;;;;;;;;;5013634;28;21032;-42
2023/12/08 07:40:58;;;;;;;44.00;39.20;;;;;;;;;;5012310;28;20884;-43
2023/12/08 07:43:26;;;;;;;41.53;37.00;;;;;;;;;;5013668;28;20541;-47
2023/12/08 07:45:54;;;;;;;44.20;39.60;;;;;;;;;;5013813;28;20444;-40
2023/12/08 07:48:21;;;;;;;50.63;43.57;;;;;;;;;;5013500;28;20441;-40
2023/12/08 07:50:49;;;;;;;46.00;41.53;;;;;;;;;;5012745;28;20544;-44
2023/12/08 07:53:18;;;;;;;43.07;38.67;;;;;;;;;;5013305;28;20433;-43
2023/12/08 07:55:46;;;;;;;42.77;38.37;;;;;;;;;;5013127;28;20452;-42
2023/12/08 07:58:14;;;;;;;41.57;37.57;;;;;;;;;;5013471;28;20443;-42
2023/12/08 08:00:43;;;;;;;40.83;36.90;;;;;;;;;;5012259;28;20458;-45
2023/12/08 08:03:10;;;;;;;41.47;36.97;;;;;;;;;;5018490;28;20447;-43
2023/12/08 08:05:38;;;;;;;40.47;36.17;;;;;;;;;;5024390;28;20999;-43
2023/12/08 08:08:06;;;;;;;41.93;37.73;;;;;;;;;;5019991;28;20437;-42
2023/12/08 08:10:35;;;;;;;43.13;38.80;;;;;;;;;;5013001;28;20482;-40
2023/12/08 08:13:02;;;;;;;39.50;35.70;;;;;;;;;;5013979;28;20505;-40
2023/12/08 08:15:30;;;;;;;39.03;34.93;;;;;;;;;;5013429;28;20536;-40
2023/12/08 08:17:57;;;;;;;39.47;35.40;;;;;;;;;;5013235;28;20524;-41
2023/12/08 08:20:25;;;;;;;39.10;35.17;;;;;;;;;;5017728;28;20483;-42
2023/12/08 08:22:54;;;;;;;40.97;36.53;;;;;;;;;;5023374;28;20468;-40
2023/12/08 08:25:22;;;;;;;37.47;34.13;;;;;;;;;;5016523;28;20437;-43
2023/12/08 08:27:53;;;;;;;39.93;36.03;;;;;;;;;;5016858;28;20437;-41
2023/12/08 08:30:21;;;;;;;35.73;32.30;;;;;;;;;;5016266;28;20472;-44
2023/12/08 08:32:48;;;;;;;35.90;32.60;;;;;;;;;;5016662;28;20464;-44
2023/12/08 08:35:16;;;;;;;37.60;33.70;;;;;;;;;;5016575;28;20445;-41
2023/12/08 08:37:44;;;;;;;37.27;33.57;;;;;;;;;;5016599;28;20483;-42
2023/12/08 08:40:12;;;;;;;37.80;34.70;;;;;;;;;;5016130;28;20465;-43
2023/12/08 08:42:40;;;;;;;37.97;34.60;;;;;;;;;;5016585;28;20468;-44
2023/12/08 08:45:09;;;;;;;36.53;33.13;;;;;;;;;;5016210;28;20536;-42
2023/12/08 08:47:37;;;;;;;36.17;32.80;;;;;;;;;;5015979;28;20507;-44
2023/12/08 08:50:05;;;;;;;38.83;34.97;;;;;;;;;;5016033;28;20468;-45
2023/12/08 08:52:34;;;;;;;37.33;34.03;;;;;;;;;;5016649;28;20480;-42
2023/12/08 08:55:02;;;;;;;38.30;34.97;;;;;;;;;;5017205;28;20443;-40
2023/12/08 08:57:30;;;;;;;35.53;32.13;;;;;;;;;;5017327;28;20444;-40
2023/12/08 08:59:58;;;;;;;36.93;33.53;;;;;;;;;;5016517;28;20901;-40
2023/12/08 09:02:29;;;;;;;35.37;31.97;;;;;;;;;;5025309;28;20983;-42
2023/12/08 09:04:56;;;;;;;33.07;30.20;;;;;;;;;;5016516;28;20437;-42
2023/12/08 09:07:25;;;;;;;36.60;33.20;;;;;;;;;;5016901;28;20532;-42
2023/12/08 09:09:53;;;;;;;37.20;33.67;;;;;;;;;;5015969;28;20464;-41
2023/12/08 09:12:20;;;;;;;36.70;33.20;;;;;;;;;;5016401;28;20480;-40
2023/12/08 09:14:48;;;;;;;34.37;31.27;;;;;;;;;;5016430;28;20475;-41
2023/12/08 09:17:15;;;;;;;35.53;32.33;;;;;;;;;;5017266;28;20790;-43
2023/12/08 09:19:45;;;;;;;36.70;33.30;;;;;;;;;;5015416;28;20492;-44
2023/12/08 09:22:14;;;;;;;36.57;33.17;;;;;;;;;;5023955;28;20457;-41
2023/12/08 09:24:42;;;;;;;38.10;34.63;;;;;;;;;;5015878;28;20443;-44
2023/12/08 09:27:10;;;;;;;34.60;31.50;;;;;;;;;;5015757;28;20483;-44
2023/12/08 09:29:38;;;;;;;35.40;32.30;;;;;;;;;;5015379;28;20437;-43
2023/12/08 09:32:06;;;;;;;37.27;33.80;;;;;;;;;;5015865;28;20484;-44
2023/12/08 09:34:34;;;;;;;36.07;32.93;;;;;;;;;;5023379;28;20469;-44
2023/12/08 09:37:03;;;;;;;36.60;33.43;;;;;;;;;;5016530;28;20524;-42
2023/12/08 09:39:51;;;;;;;35.07;31.97;;;;;;;;;;5015371;28;20466;-42
2023/12/08 09:42:22;;;;;;;35.90;32.83;;;;;;;;;;5015328;28;20457;-45
2023/12/08 09:44:50;;;;;;;35.10;32.10;;;;;;;;;;5015221;28;20449;-44
2023/12/08 09:47:18;;;;;;;36.27;32.93;;;;;;;;;;5014773;28;20936;-43
2023/12/08 09:49:47;;;;;;;34.33;31.23;;;;;;;;;;5014473;28;20532;-44
2023/12/08 09:52:16;;;;;;;36.37;33.50;;;;;;;;;;5014863;28;20503;-40
2023/12/08 09:54:44;;;;;;;34.70;31.70;;;;;;;;;;5023363;28;20810;-45
2023/12/08 09:57:13;;;;;;;35.43;32.50;;;;;;;;;;5015267;28;20461;-46
2023/12/08 09:59:42;;;;;;;35.90;32.97;;;;;;;;;;5014429;28;20444;-43
2023/12/08 10:02:09;;;;;;;35.20;32.10;;;;;;;;;;5015399;28;20540;-41
2023/12/08 10:04:37;;;;;;;34.87;31.97;;;;;;;;;;5015157;28;20495;-40
2023/12/08 10:07:08;;;;;;;34.70;31.87;;;;;;;;;;5014924;28;20445;-41
2023/12/08 10:09:37;;;;;;;33.47;30.93;;;;;;;;;;5014911;28;20805;-40
2023/12/08 10:12:05;;;;;;;34.60;31.70;;;;;;;;;;5015154;28;20923;-41
2023/12/08 10:14:33;;;;;;;34.20;31.30;;;;;;;;;;5014518;28;20879;-41
2023/12/08 10:17:02;;;;;;;34.80;32.00;;;;;;;;;;5017981;28;20449;-44
2023/12/08 10:19:29;;;;;;;34.33;31.30;;;;;;;;;;5018889;28;20510;-42
2023/12/08 10:22:00;;;;;;;35.50;32.40;;;;;;;;;;5029455;28;20457;-40
2023/12/08 10:24:29;;;;;;;34.87;32.13;;;;;;;;;;5014628;28;20955;-41
2023/12/08 10:26:59;;;;;;;33.83;31.20;;;;;;;;;;5014873;28;20442;-44
2023/12/08 10:29:30;;;;;;;35.73;32.27;;;;;;;;;;5014804;28;20998;-42
2023/12/08 10:31:57;;;;;;;37.70;34.33;;;;;;;;;;4986765;28;20604;-43
2023/12/08 10:34:25;;;;;;;36.27;33.20;;;;;;;;;;5014621;28;20473;-46
2023/12/08 10:36:53;;;;;;;35.07;32.17;;;;;;;;;;5014587;28;20437;-42
2023/12/08 10:39:21;;;;;;;34.10;31.30;;;;;;;;;;5014426;28;20469;-41
2023/12/08 10:41:49;;;;;;;35.90;32.80;;;;;;;;;;5015193;28;20540;-42
2023/12/08 10:44:21;;;;;;;35.87;32.67;;;;;;;;;;5020127;28;20503;-44
2023/12/08 10:46:52;;;;;;;36.00;32.70;;;;;;;;;;5022352;28;20432;-44
2023/12/08 10:49:20;;;;;;;37.70;34.30;;;;;;;;;;5014761;28;20804;-43
2023/12/08 10:51:48;;;;;;;35.67;32.37;;;;;;;;;;5013824;28;20473;-41
2023/12/08 10:54:17;;;;;;;37.37;33.67;;;;;;;;;;5014134;28;20948;-43
2023/12/08 10:56:45;;;;;;;34.37;31.57;;;;;;;;;;5013866;28;20447;-41
2023/12/08 10:59:17;;;;;;;42.00;36.37;;;;;;;;;;5014186;28;20441;-42
2023/12/08 11:01:47;;;;;;;39.47;35.17;;;;;;;;;;5030855;22;20449;-38
2023/12/08 11:04:20;;;;;;;42.53;37.47;;;;;;;;;;4999959;28;20468;-38
2023/12/08 11:06:51;;;;;;;42.13;37.73;;;;;;;;;;5000019;28;20438;-41
2023/12/08 11:09:20;;;;;;;44.80;40.53;;;;;;;;;;4999412;28;20525;-38
2023/12/08 11:11:49;;;;;;;43.80;39.30;;;;;;;;;;5004852;28;20484;-40
2023/12/08 11:14:23;;;;;;;41.50;38.00;;;;;;;;;;4977369;28;20470;-38
2023/12/08 11:16:57;;;;;;;42.27;38.60;;;;;;;;;;4982194;28;20529;-38
2023/12/08 11:19:25;;;;;;;38.90;35.43;;;;;;;;;;4978678;28;20444;-37
2023/12/08 11:21:55;;;;;;;38.70;35.23;;;;;;;;;;4955792;28;20478;-38
2023/12/08 11:24:23;;;;;;;38.70;35.17;;;;;;;;;;4986063;28;20453;-40
2023/12/08 11:26:52;;;;;;;39.93;36.10;;;;;;;;;;4971977;28;20473;-38
2023/12/08 11:29:25;;;;;;;37.10;33.50;;;;;;;;;;4985264;28;20438;-38
2023/12/08 11:31:58;;;;;;;38.17;34.53;;;;;;;;;;4980610;28;20922;-38
2023/12/08 11:34:30;;;;;;;40.53;36.33;;;;;;;;;;4986106;28;20507;-38
2023/12/08 11:36:58;;;;;;;38.63;35.07;;;;;;;;;;4975334;28;20823;-38
2023/12/08 11:39:41;;;;;;;38.17;34.23;;;;;;;;;;5005275;28;20430;-39
2023/12/08 11:42:09;;;;;;;42.27;37.73;;;;;;;;;;4983684;28;20446;-40
2023/12/08 11:44:38;;;;;;;40.87;36.23;;;;;;;;;;4983146;28;20443;-40
2023/12/08 11:47:08;;;;;;;40.87;36.90;;;;;;;;;;4990972;28;20521;-38
2023/12/08 11:49:36;;;;;;;41.83;37.57;;;;;;;;;;4984464;28;20431;-38
2023/12/08 11:52:09;;;;;;;42.63;38.00;;;;;;;;;;4974355;28;20864;-40
2023/12/08 11:54:51;;;;;;;40.70;36.80;;;;;;;;;;4984027;28;20518;-39
2023/12/08 11:57:35;;;;;;;40.73;37.00;;;;;;;;;;4980021;28;20443;-40
2023/12/08 12:00:07;;;;;;;40.17;36.33;;;;;;;;;;4981215;28;20561;-40
2023/12/08 12:02:36;;;;;;;40.93;36.53;;;;;;;;;;4982625;28;20466;-38
2023/12/08 12:05:04;;;;;;;40.27;36.37;;;;;;;;;;4983223;28;20811;-39
2023/12/08 12:07:32;;;;;;;45.83;41.03;;;;;;;;;;4982309;28;20438;-39
2023/12/08 12:10:00;;;;;;;42.70;38.43;;;;;;;;;;4991127;28;20457;-40
2023/12/08 12:12:28;;;;;;;52.53;47.33;;;;;;;;;;4990392;28;20485;-38
2023/12/08 12:14:57;;;;;;;44.67;40.30;;;;;;;;;;4979955;28;20440;-40
2023/12/08 12:17:24;;;;;;;44.40;40.20;;;;;;;;;;4979582;28;20439;-41
2023/12/08 12:19:54;;;;;;;42.83;38.20;;;;;;;;;;4980199;28;20512;-39
2023/12/08 12:22:22;;;;;;;94.53;74.67;;;;;;;;;;4982539;28;20458;-42
2023/12/08 12:24:50;;;;;;;50.87;45.50;;;;;;;;;;4990712;28;20440;-38
2023/12/08 12:27:17;;;;;;;48.70;43.60;;;;;;;;;;4986451;28;20530;-46
2023/12/08 12:29:46;;;;;;;45.13;40.83;;;;;;;;;;4979237;28;20466;-38
2023/12/08 12:32:14;;;;;;;42.13;38.13;;;;;;;;;;4983108;28;20454;-40
2023/12/08 12:34:42;;;;;;;43.57;39.00;;;;;;;;;;4990848;28;20449;-39
2023/12/08 12:37:11;;;;;;;44.80;40.20;;;;;;;;;;4986455;28;21181;-38
2023/12/08 12:39:39;;;;;;;42.57;38.37;;;;;;;;;;4979389;28;20439;-40
2023/12/08 12:42:07;;;;;;;42.50;38.40;;;;;;;;;;4990144;28;20453;-38
2023/12/08 12:44:38;;;;;;;37.60;34.20;;;;;;;;;;4990720;28;20434;-38
2023/12/08 12:47:09;;;;;;;41.37;37.43;;;;;;;;;;4987417;28;20435;-38
2023/12/08 12:49:37;;;;;;;44.07;39.77;;;;;;;;;;4978280;28;20516;-39
2023/12/08 12:54:58;;;;;;;37.43;34.00;;;;;;;;;;5132098;27;20515;-38
2023/12/08 12:57:40;;;;;;;41.10;36.80;;;;;;;;;;5149155;27;20431;-38
2023/12/08 13:00:10;;;;;;;38.20;34.30;;;;;;;;;;5143289;27;20531;-38
2023/12/08 13:02:37;;;;;;;41.10;37.30;;;;;;;;;;5101877;28;20448;-38
2023/12/08 13:05:07;;;;;;;43.13;38.47;;;;;;;;;;5119797;28;20499;-39
2023/12/08 13:07:34;;;;;;;40.20;36.30;;;;;;;;;;5128666;28;20436;-40
2023/12/08 13:10:05;;;;;;;42.57;36.60;;;;;;;;;;5123004;27;20452;-40
2023/12/08 13:12:33;;;;;;;41.03;37.20;;;;;;;;;;5104783;28;20459;-41
2023/12/08 13:15:01;;;;;;;41.77;37.57;;;;;;;;;;5124578;28;20471;-39
2023/12/08 13:17:33;;;;;;;38.60;35.27;;;;;;;;;;5114679;27;20442;-39
2023/12/08 13:20:01;;;;;;;40.73;36.93;;;;;;;;;;5116216;27;20460;-38
2023/12/08 13:22:29;;;;;;;40.10;36.23;;;;;;;;;;5128243;28;20462;-43
2023/12/08 13:24:56;;;;;;;38.10;34.70;;;;;;;;;;5119764;28;20440;-38
2023/12/08 13:27:25;;;;;;;38.37;34.77;;;;;;;;;;5100871;28;20481;-38
2023/12/08 13:29:54;;;;;;;39.97;36.40;;;;;;;;;;5104300;28;20459;-38
2023/12/08 13:32:21;;;;;;;41.27;37.33;;;;;;;;;;5102547;28;20460;-38
2023/12/08 13:34:49;;;;;;;41.03;37.00;;;;;;;;;;5095496;28;20883;-38
2023/12/08 13:37:17;;;;;;;41.27;37.07;;;;;;;;;;5090962;28;20429;-38
2023/12/08 13:39:44;;;;;;;42.73;38.83;;;;;;;;;;5099373;28;20794;-40
2023/12/08 13:42:12;;;;;;;41.60;37.40;;;;;;;;;;5103776;28;20453;-38
2023/12/08 13:44:41;;;;;;;42.27;36.93;;;;;;;;;;5094954;28;20578;-38
2023/12/08 13:47:09;;;;;;;44.33;39.67;;;;;;;;;;5103750;28;20441;-41
2023/12/08 13:49:36;;;;;;;39.37;35.57;;;;;;;;;;5085877;28;20441;-38
2023/12/08 13:52:05;;;;;;;41.37;37.43;;;;;;;;;;5088929;28;20461;-40
2023/12/08 13:54:32;;;;;;;41.67;37.27;;;;;;;;;;5104888;28;21049;-41
2023/12/08 13:57:00;;;;;;;40.13;35.90;;;;;;;;;;5106824;28;20439;-40
2023/12/08 13:59:28;;;;;;;42.33;37.93;;;;;;;;;;5093669;28;20430;-39
2023/12/08 14:01:57;;;;;;;42.03;37.70;;;;;;;;;;5084145;28;20453;-39
2023/12/08 14:04:25;;;;;;;44.10;39.47;;;;;;;;;;5098469;28;20537;-40
2023/12/08 14:06:53;;;;;;;42.00;37.87;;;;;;;;;;5049486;28;20454;-40
2023/12/08 14:09:22;;;;;;;44.77;40.57;;;;;;;;;;5085833;28;20696;-39
2023/12/08 14:11:49;;;;;;;44.10;39.63;;;;;;;;;;5076244;28;20454;-38
2023/12/08 14:14:18;;;;;;;40.57;36.80;;;;;;;;;;5072703;28;20478;-38
2023/12/08 14:16:45;;;;;;;42.20;38.03;;;;;;;;;;5068535;28;20426;-38
2023/12/08 14:19:14;;;;;;;40.00;35.90;;;;;;;;;;5076068;28;20461;-40
2023/12/08 14:21:43;;;;;;;43.87;39.37;;;;;;;;;;5093024;28;20433;-40
2023/12/08 14:24:10;;;;;;;39.10;35.30;;;;;;;;;;5083605;28;20517;-41
2023/12/08 14:26:38;;;;;;;43.43;38.90;;;;;;;;;;5085636;28;20434;-39